메인 페이지
METAR-TAF:

METAR-TAF

공항 :

핼리팩스 스탠필드 국제공항

핼리팩스, 노바스코샤, 캐나다

위도: 44-53N, 경도: 063-30W, 고도: 145m

현재 날씨관측

예보는 53분 전, 21:00시(UTC)에 발표되었습니다.
남남서12kt, 순간 최대 풍속 19kt
온도 23°C
습도 94%
기압 1027 hPa
시정: 24.1km
고도 600ft 상공 흐림

METAR: CYHZ 222100Z 20012G19KT 15SM OVC006 23/22 A3032 RMK ST8 SLP269 DENSITY ALT 1100FT

시각: 18:53 (21:53 UTC)

예보

예보는 1 시간 14분 전, 20:39시(UTC)에 발표되었습니다.
예보 대상 시간: 22일 21시부터 23일 18시까지 (UTC)
남남서12kt
시정: 10km
고도 300ft 상공 구름 조금
고도 600ft 상공 구름 많음
일시적
22일 21시부터 22일 24시까지 (UTC)
시정: 3.2km
고도 300ft 상공 구름 많음
고도 600ft 상공 흐림
약한소나기, 박무
23일 0000시부터 (UTC)
남남서8kt
시정: 3.2km
고도 300ft 상공 구름 많음
고도 600ft 상공 흐림
박무
23일 0300시부터 (UTC)
7kt
시정: 1.2km
고도 200ft 상공 흐림
약한소나기, 박무
23일 0600시부터 (UTC)
남남서10kt
시정: 0.8km
고도 200ft 상공
안개
23일 1500시부터 (UTC)
남남서12kt
시정: 9.7km
고도 400ft 상공 구름 많음
박무

TAF: CYHZ 222039Z 2221/2318 21012KT P6SM FEW003 BKN006 TEMPO 2221/2224 2SM -SHRA BR BKN003 OVC006 FM230000 20008KT 2SM BR BKN003 OVC006 FM230300 18007KT 3/4SM -SHRA BR OVC002 FM230600 20010KT 1/2SM FG VV002 FM231500 20012KT 6SM BR BKN004 RMK NXT FCST BY 230000Z

4,000개 이상의 공항 관측 자료 및 예보 (METAR 및 TAF 보고).

지도상에서 검색 가능한 기상관측소가 노란 점과 빨간 점으로 표시되어 있습니다.

기상관측소 명을 보려면 표시 위로 마우스를 이동하세요.

날씨 관측과 예보를 보려면 클릭하세요.

지도 변경 : 확대하려면 엑스 표시가 있는 녹색 버튼, 축소하려면 빼기 표시가 있는 녹색 버튼, 다음 페이지의 지도를 보려면 녹색 화살표를 클릭하세요.


METAR-TAF: